Aeroporto :
LOGIN :

Iscrizione | Disclaimer

   EN    FR    IT 

 










Sommario :    VFR   VFR Marginale   IFR   IFR Intensivo   IFR Molto Intensivo
Visibilità : 
Base nubi : 
>= 8 km
>= 3000ft
5 / 8 km
1000 / 3000 ft
1500m / 5 km
500 / 1000 ft
800 / 1500m
200 / 500 ft
< 800m
< 200 ft
Simboli :   Temporali  Nebbia  Neve Forte  Precipitazioni Forti  Vento > 20 kt
SIGMETs :   Varie  Temporali  Ghiacco  Turbolenza  Onda orograficha  Ceneri Vulcaniche






- Altitudine del aeroporto : 885 ft
- Codice IATA : BAS


LFSB - Bale-Mulhouse

ULTIMO METAR :
  • 172100Z AUTO 33004KT 9000 FEW054 00/M00 Q1037 TEMPO 0400 FZFG VV///

METARs OBSOLETI :
  • 172030Z AUTO 30001KT 9999 FEW056 00/M00 Q1037 TEMPO 0400 FZFG VV///
  • 172000Z AUTO 28001KT CAVOK 01/M01 Q1036 BECMG 4000 BR
  • 171930Z AUTO 17003KT 120V230 9999 BKN043 03/01 Q1036 TEMPO 0800 FZFG OVC002
  • 171900Z AUTO VRB02KT 9999 OVC042 03/01 Q1036 TEMPO BKN003 BECMG 4000 BR
  • 171830Z AUTO 00000KT 9999 OVC044 03/01 Q1036 TEMPO BKN003 BECMG 4000 BR

TAF AMD TAF LFSB
Valido dal 17 a 19 ore il 18 a 18 ore UTC


171928Z 1719/1818 VRB03KT 9999 SCT040
BECMG 1720/1722 4000 BR
TEMPO 1722/1809 1200 OVC002
PROB40 1722/1808 0400 FZFG VV///
BECMG 1809/1811 35006KT 6000 NSW OVC006
BECMG 1812/1814 FEW015
Met : +33 3 89 90 31 11



MetMap, La meteo Aeronautica in un colpo d'occhio ! - Copyright ORBIFLY Dicembre 2007 - Disclaimer

ORBIFLY MET'MAP TEAM :

Programmazione e sviluppo : Alexandra Zaïnal
Concezione : Baudouin d'Aumeries
Aiuto per la programmazione : Marc-Olivier Méhu
Supporto tecnico e logistico : Manuel Goepfert
Aiuto per la traduzione : Arnaldo La Scala

Contatto : metmap@orbifly.com




FONTI E CREDITI :

   NOAA